Time,TemperatureF,DewpointF,PressureIn,WindDirection,WindDirectionDegrees,WindSpeedMPH,WindSpeedGustMPH,Humidity,HourlyPrecipIn,Conditions,Clouds,dailyrainin,SoftwareType,DateUTC
2013-06-23 00:13:00,75.3,15.0,29.52,NE,46,0.0,0.0,10,0.00,,,0.00,weatherlink.com 1.10,2013-06-23 06:13:00,
2013-06-23 00:28:00,74.2,18.0,29.53,ESE,115,0.0,1.0,12,0.00,,,0.00,weatherlink.com 1.10,2013-06-23 06:28:00,
2013-06-23 00:43:00,74.0,16.0,29.52,ESE,108,2.0,2.0,11,0.00,,,0.00,weatherlink.com 1.10,2013-06-23 06:43:00,
2013-06-23 00:58:00,73.7,14.0,29.52,ESE,117,0.0,2.0,10,0.00,,,0.00,weatherlink.com 1.10,2013-06-23 06:58:00,
2013-06-23 01:13:00,72.2,19.0,29.53,ESE,118,0.0,1.0,13,0.00,,,0.00,weatherlink.com 1.10,2013-06-23 07:13:00,
2013-06-23 01:28:00,71.6,18.0,29.53,ESE,113,0.0,2.0,13,0.00,,,0.00,weatherlink.com 1.10,2013-06-23 07:28:00,
2013-06-23 01:43:00,71.3,16.0,29.53,ESE,108,2.0,3.0,12,0.00,,,0.00,weatherlink.com 1.10,2013-06-23 07:43:00,
2013-06-23 01:58:00,71.6,12.0,29.54,ESE,123,1.0,3.0,10,0.00,,,0.00,weatherlink.com 1.10,2013-06-23 07:58:00,
2013-06-23 02:13:00,71.4,9.0,29.54,SSE,155,0.0,3.0,9,0.00,,,0.00,weatherlink.com 1.10,2013-06-23 08:13:00,
2013-06-23 02:28:00,70.3,11.0,29.55,SE,126,1.0,2.0,10,0.00,,,0.00,weatherlink.com 1.10,2013-06-23 08:28:00,
2013-06-23 02:43:00,69.1,12.0,29.55,SE,140,0.0,1.0,11,0.00,,,0.00,weatherlink.com 1.10,2013-06-23 08:43:00,
2013-06-23 02:58:00,67.6,13.0,29.55,ESE,113,0.0,1.0,12,0.00,,,0.00,weatherlink.com 1.10,2013-06-23 08:58:00,
2013-06-23 03:13:00,66.9,18.0,29.55,ESE,109,0.0,1.0,15,0.00,,,0.00,weatherlink.com 1.10,2013-06-23 09:13:00,
2013-06-23 03:28:00,66.4,14.0,29.55,ESE,121,0.0,2.0,13,0.00,,,0.00,weatherlink.com 1.10,2013-06-23 09:28:00,
2013-06-23 03:43:00,66.4,14.0,29.55,ESE,121,2.0,3.0,13,0.00,,,0.00,weatherlink.com 1.10,2013-06-23 09:43:00,
2013-06-23 03:58:00,66.8,12.0,29.55,East,92,2.0,3.0,12,0.00,,,0.00,weatherlink.com 1.10,2013-06-23 09:58:00,
2013-06-23 04:13:00,67.0,13.0,29.55,ESE,120,1.0,3.0,12,0.00,,,0.00,weatherlink.com 1.10,2013-06-23 10:13:00,
2013-06-23 04:28:00,67.2,11.0,29.56,SSE,153,0.0,4.0,11,0.00,,,0.00,weatherlink.com 1.10,2013-06-23 10:28:00,
2013-06-23 04:43:00,65.9,12.0,29.56,SE,146,0.0,1.0,12,0.00,,,0.00,weatherlink.com 1.10,2013-06-23 10:43:00,
2013-06-23 04:58:00,63.5,15.0,29.56,SE,146,1.0,1.0,15,0.00,,,0.00,weatherlink.com 1.10,2013-06-23 10:58:00,
2013-06-23 05:13:00,62.3,23.0,29.57,SE,146,0.0,1.0,22,0.00,,,0.00,weatherlink.com 1.10,2013-06-23 11:13:00,
2013-06-23 05:28:00,63.0,22.0,29.57,SE,146,0.0,1.0,21,0.00,,,0.00,weatherlink.com 1.10,2013-06-23 11:28:00,
2013-06-23 05:43:00,63.9,26.0,29.57,SE,146,0.0,0.0,24,0.00,,,0.00,weatherlink.com 1.10,2013-06-23 11:43:00,
2013-06-23 05:58:00,64.7,23.0,29.58,SE,146,0.0,0.0,20,0.00,,,0.00,weatherlink.com 1.10,2013-06-23 11:58:00,
2013-06-23 06:13:00,63.8,19.0,29.58,SE,146,0.0,0.0,18,0.00,,,0.00,weatherlink.com 1.10,2013-06-23 12:13:00,
2013-06-23 06:28:00,61.6,21.0,29.59,SE,146,0.0,1.0,21,0.00,,,0.00,weatherlink.com 1.10,2013-06-23 12:28:00,
2013-06-23 06:43:00,62.1,28.0,29.59,SE,146,0.0,0.0,27,0.00,,,0.00,weatherlink.com 1.10,2013-06-23 12:43:00,
2013-06-23 06:58:00,63.3,26.0,29.59,SE,146,0.0,1.0,24,0.00,,,0.00,weatherlink.com 1.10,2013-06-23 12:58:00,
2013-06-23 07:13:00,63.4,26.0,29.60,SSW,212,0.0,2.0,24,0.00,,,0.00,weatherlink.com 1.10,2013-06-23 13:13:00,
2013-06-23 07:29:00,65.8,22.0,29.60,SW,218,1.0,1.0,19,0.00,,,0.00,weatherlink.com 1.10,2013-06-23 13:29:00,
2013-06-23 07:44:00,66.5,19.0,29.61,SW,228,0.0,2.0,16,0.00,,,0.00,weatherlink.com 1.10,2013-06-23 13:44:00,
2013-06-23 07:59:00,68.9,19.0,29.62,SE,124,0.0,1.0,15,0.00,,,0.00,weatherlink.com 1.10,2013-06-23 13:59:00,
2013-06-23 08:14:00,71.6,20.0,29.61,SSE,167,0.0,1.0,14,0.00,,,0.00,weatherlink.com 1.10,2013-06-23 14:14:00,
2013-06-23 08:29:00,75.1,17.0,29.61,WSW,239,0.0,2.0,11,0.00,,,0.00,weatherlink.com 1.10,2013-06-23 14:29:00,
2013-06-23 08:44:00,76.7,16.0,29.61,WSW,238,1.0,2.0,10,0.00,,,0.00,weatherlink.com 1.10,2013-06-23 14:44:00,
2013-06-23 08:59:00,78.9,13.0,29.62,WSW,256,1.0,3.0,8,0.00,,,0.00,weatherlink.com 1.10,2013-06-23 14:59:00,
2013-06-23 09:14:00,80.6,14.0,29.62,SSW,197,1.0,3.0,8,0.00,,,0.00,weatherlink.com 1.10,2013-06-23 15:14:00,
2013-06-23 09:29:00,79.6,10.0,29.62,SE,125,1.0,7.0,7,0.00,,,0.00,weatherlink.com 1.10,2013-06-23 15:29:00,
2013-06-23 09:44:00,81.3,14.0,29.61,SW,221,2.0,5.0,8,0.00,,,0.00,weatherlink.com 1.10,2013-06-23 15:44:00,
2013-06-23 09:59:00,83.2,13.0,29.61,SSW,211,4.0,6.0,7,0.00,,,0.00,weatherlink.com 1.10,2013-06-23 15:59:00,
2013-06-23 10:14:00,83.9,13.0,29.60,WSW,245,1.0,5.0,7,0.00,,,0.00,weatherlink.com 1.10,2013-06-23 16:14:00,
2013-06-23 10:29:00,84.5,14.0,29.60,SSW,198,2.0,9.0,7,0.00,,,0.00,weatherlink.com 1.10,2013-06-23 16:29:00,
2013-06-23 10:44:00,86.1,15.0,29.59,SW,214,1.0,4.0,7,0.00,,,0.00,weatherlink.com 1.10,2013-06-23 16:44:00,
2013-06-23 10:59:00,87.4,12.0,29.59,ESE,114,0.0,6.0,6,0.00,,,0.00,weatherlink.com 1.10,2013-06-23 16:59:00,
2013-06-23 11:14:00,89.0,17.0,29.58,WSW,252,1.0,3.0,7,0.00,,,0.00,weatherlink.com 1.10,2013-06-23 17:14:00,
2013-06-23 11:29:00,88.8,17.0,29.58,West,260,3.0,6.0,7,0.00,,,0.00,weatherlink.com 1.10,2013-06-23 17:29:00,
2013-06-23 11:44:00,90.0,14.0,29.57,SSW,198,0.0,6.0,6,0.00,,,0.00,weatherlink.com 1.10,2013-06-23 17:44:00,
2013-06-23 11:59:00,89.5,14.0,29.57,ESE,107,7.0,7.0,6,0.00,,,0.00,weatherlink.com 1.10,2013-06-23 17:59:00,
2013-06-23 12:14:00,89.5,14.0,29.56,SE,139,1.0,5.0,6,0.00,,,0.00,weatherlink.com 1.10,2013-06-23 18:14:00,
2013-06-23 12:29:00,90.8,15.0,29.55,SSE,166,2.0,9.0,6,0.00,,,0.00,weatherlink.com 1.10,2013-06-23 18:29:00,
2013-06-23 12:44:00,90.7,15.0,29.55,SW,226,5.0,6.0,6,0.00,,,0.00,weatherlink.com 1.10,2013-06-23 18:44:00,
2013-06-23 12:59:00,91.0,11.0,29.54,South,180,6.0,7.0,5,0.00,,,0.00,weatherlink.com 1.10,2013-06-23 18:59:00,
2013-06-23 13:14:00,90.8,15.0,29.54,SW,236,2.0,8.0,6,0.00,,,0.00,weatherlink.com 1.10,2013-06-23 19:14:00,
2013-06-23 13:29:00,91.8,16.0,29.53,SW,229,1.0,4.0,6,0.00,,,0.00,weatherlink.com 1.10,2013-06-23 19:29:00,
2013-06-23 13:44:00,93.4,13.0,29.52,SSW,198,3.0,5.0,5,0.00,,,0.00,weatherlink.com 1.10,2013-06-23 19:44:00,
2013-06-23 13:59:00,94.0,13.0,29.51,WSW,253,2.0,3.0,5,0.00,,,0.00,weatherlink.com 1.10,2013-06-23 19:59:00,
2013-06-23 14:14:00,94.5,14.0,29.50,SE,143,2.0,7.0,5,0.00,,,0.00,weatherlink.com 1.10,2013-06-23 20:14:00,
2013-06-23 14:29:00,93.9,13.0,29.50,NE,39,2.0,7.0,5,0.00,,,0.00,weatherlink.com 1.10,2013-06-23 20:29:00,
2013-06-23 14:46:00,94.1,8.0,29.49,East,100,1.0,5.0,4,0.00,,,0.00,weatherlink.com 1.10,2013-06-23 20:46:00,
2013-06-23 15:58:00,96.4,3.0,29.45,South,183,2.0,7.0,3,0.00,,,0.00,weatherlink.com 1.10,2013-06-23 21:58:00,
2013-06-23 16:15:00,96.3,3.0,29.45,SE,132,2.0,6.0,3,0.00,,,0.00,weatherlink.com 1.10,2013-06-23 22:15:00,
2013-06-23 16:30:00,96.5,3.0,29.44,ESE,104,2.0,9.0,3,0.00,,,0.00,weatherlink.com 1.10,2013-06-23 22:30:00,
2013-06-23 16:45:00,96.2,10.0,29.43,East,100,8.0,8.0,4,0.00,,,0.00,weatherlink.com 1.10,2013-06-23 22:45:00,
2013-06-23 17:00:00,96.2,3.0,29.43,SE,129,3.0,10.0,3,0.00,,,0.00,weatherlink.com 1.10,2013-06-23 23:00:00,
2013-06-23 17:15:00,95.3,3.0,29.42,SE,125,4.0,12.0,3,0.00,,,0.00,weatherlink.com 1.10,2013-06-23 23:15:00,
2013-06-23 17:30:00,95.5,9.0,29.41,SSW,204,2.0,10.0,4,0.00,,,0.00,weatherlink.com 1.10,2013-06-23 23:30:00,
2013-06-23 17:46:00,95.9,9.0,29.40,West,280,3.0,12.0,4,0.00,,,0.00,weatherlink.com 1.10,2013-06-23 23:46:00,
2013-06-23 18:01:00,95.7,9.0,29.39,WSW,240,2.0,8.0,4,0.00,,,0.00,weatherlink.com 1.10,2013-06-24 00:01:00,
2013-06-23 18:16:00,95.3,9.0,29.39,SSE,156,4.0,8.0,4,0.00,,,0.00,weatherlink.com 1.10,2013-06-24 00:16:00,
2013-06-23 18:31:00,95.3,9.0,29.39,SSW,193,0.0,6.0,4,0.00,,,0.00,weatherlink.com 1.10,2013-06-24 00:31:00,
2013-06-23 18:46:00,94.8,9.0,29.39,SW,218,2.0,8.0,4,0.00,,,0.00,weatherlink.com 1.10,2013-06-24 00:46:00,
2013-06-23 19:01:00,93.7,8.0,29.39,SW,226,5.0,7.0,4,0.00,,,0.00,weatherlink.com 1.10,2013-06-24 01:01:00,
2013-06-23 19:16:00,93.2,7.0,29.39,West,259,1.0,9.0,4,0.00,,,0.00,weatherlink.com 1.10,2013-06-24 01:16:00,
2013-06-23 19:31:00,93.1,7.0,29.39,SSE,153,2.0,7.0,4,0.00,,,0.00,weatherlink.com 1.10,2013-06-24 01:31:00,
2013-06-23 19:46:00,92.3,7.0,29.39,SW,217,2.0,7.0,4,0.00,,,0.00,weatherlink.com 1.10,2013-06-24 01:46:00,
2013-06-23 20:01:00,90.5,11.0,29.39,SW,217,6.0,6.0,5,0.00,,,0.00,weatherlink.com 1.10,2013-06-24 02:01:00,
2013-06-23 20:16:00,88.6,9.0,29.39,SSW,207,0.0,3.0,5,0.00,,,0.00,weatherlink.com 1.10,2013-06-24 02:16:00,
2013-06-23 20:31:00,87.4,12.0,29.39,SE,139,0.0,2.0,6,0.00,,,0.00,weatherlink.com 1.10,2013-06-24 02:31:00,
2013-06-23 20:46:00,86.3,8.0,29.40,SSE,158,1.0,4.0,5,0.00,,,0.00,weatherlink.com 1.10,2013-06-24 02:46:00,
2013-06-23 21:02:00,85.7,7.0,29.40,SSW,212,1.0,5.0,5,0.00,,,0.00,weatherlink.com 1.10,2013-06-24 03:02:00,
2013-06-23 21:17:00,85.0,11.0,29.41,ESE,108,4.0,4.0,6,0.00,,,0.00,weatherlink.com 1.10,2013-06-24 03:17:00,
2013-06-23 21:32:00,84.5,1.0,29.41,SE,132,1.0,4.0,4,0.00,,,0.00,weatherlink.com 1.10,2013-06-24 03:32:00,
2013-06-23 21:47:00,83.9,6.0,29.42,South,172,1.0,5.0,5,0.00,,,0.00,weatherlink.com 1.10,2013-06-24 03:47:00,
2013-06-23 22:02:00,82.6,5.0,29.43,SE,128,1.0,4.0,5,0.00,,,0.00,weatherlink.com 1.10,2013-06-24 04:02:00,
2013-06-23 22:17:00,82.0,4.0,29.45,ESE,118,3.0,7.0,5,0.00,,,0.00,weatherlink.com 1.10,2013-06-24 04:17:00,
2013-06-23 22:32:00,81.7,4.0,29.45,ESE,113,1.0,6.0,5,0.00,,,0.00,weatherlink.com 1.10,2013-06-24 04:32:00,
2013-06-23 22:47:00,81.0,8.0,29.47,SSW,212,0.0,4.0,6,0.00,,,0.00,weatherlink.com 1.10,2013-06-24 04:47:00,
2013-06-23 23:02:00,80.3,11.0,29.48,SSW,203,0.0,4.0,7,0.00,,,0.00,weatherlink.com 1.10,2013-06-24 05:02:00,
2013-06-23 23:17:00,79.8,10.0,29.48,WSW,243,1.0,5.0,7,0.00,,,0.00,weatherlink.com 1.10,2013-06-24 05:17:00,
2013-06-23 23:32:00,79.3,10.0,29.49,WSW,238,1.0,5.0,7,0.00,,,0.00,weatherlink.com 1.10,2013-06-24 05:32:00,